Nearby METAR Reports

 

KPRB - Paso Robles, California, USA
Distance from station: SW 1mi, 1km
Updated: 12/18/2014 11:42pm
Mostly cloudy
Mostly cloudy
 Wind from ESE
Wind: ESE 5 mph , 7 km/h
Temperature: 46°F , 8°C
Wind Chill: 44°F , 7°C
Dew Point: 45°F , 7°C
Humidity: 93%
Barometer: 30.22 inHg , 1023.4 hPa
Clouds: Mostly cloudy
Visibility: 10 miles , 16 km
Cloud details: Mostly cloudy 2100 ft
2014/12/19 07:42 KPRB 190742Z AUTO 12004KT 10SM BKN021 08/07 A3022 RMK AO2 T00830067 TSNO
KSBP - San Luis Obispo, California, USA
Distance from station: S 30mi, 49km
Updated: 12/18/2014 11:43pm
Overcast
Overcast
 Wind from ESE
Wind: ESE 10 mph , 17 km/h
Temperature: 50°F , 10°C
Wind Chill: 46°F , 8°C
Dew Point: 48°F , 9°C
Humidity: 94%
Barometer: 30.22 inHg , 1023.4 hPa
Clouds: Overcast
Visibility: 10 miles , 16 km
Cloud details: Partly cloudy 2100 ft
Overcast 3100 ft
2014/12/19 07:43 KSBP 190743Z AUTO 11009KT 10SM SCT021 OVC031 10/09 A3022 RMK AO2 T01000094
 
KSMX - Santa Maria, California, USA
Distance from station: S 54mi, 87km
Updated: 12/18/2014 11:51pm
Overcast
Overcast
 Wind from E
Wind: E 3 mph , 6 km/h
Temperature: 55°F , 13°C
Dew Point: 50°F , 10°C
Humidity: 82%
Barometer: 30.24 inHg , 1024 hPa
Clouds: Overcast
Visibility: 10 miles , 16 km
Cloud details: Overcast 3000 ft
2014/12/19 07:51 KSMX 190751Z AUTO 08003KT 10SM OVC030 13/10 A3024 RMK AO2 SLP241 T01330100 401830100 TSNO
KNLC - Lemoore Nas/Reev, California, USA
Distance from station: NE 58mi, 94km
Updated: 12/18/2014 10:56pm
Mostly cloudy
Mostly cloudy
 Wind from SW
Wind: SW 7 mph , 11 km/h
Temperature: 46°F , 8°C
Wind Chill: 42°F , 6°C
Dew Point: 45°F , 7°C
Humidity: 93%
Barometer: 30.24 inHg , 1024 hPa
Clouds: Mostly cloudy
Visibility: 8 miles , 13 km
Cloud details: Few Clouds 4000 ft
Partly cloudy 12000 ft
Mostly cloudy 18000 ft
2014/12/19 06:56 KNLC 190656Z 23006KT 8SM FEW040 SCT120 BKN180 08/07 A3024 RMK AO2 SLP241 T00830067 $
 
KVBG - Vandenberg Afb, California, USA
Distance from station: S 65mi, 105km
Updated: 12/18/2014 11:19pm
Overcast
Overcast
 Wind from E
Wind: E 7 mph , 11 km/h
Temperature: 54°F , 12°C
Dew Point: 50°F , 10°C
Humidity: 88%
Barometer: 30.24 inHg , 1024 hPa
Clouds: Overcast
Visibility: 10 miles , 16 km
Cloud details: Partly cloudy 2600 ft
Overcast 3300 ft
2014/12/19 07:19 KVBG 190719Z AUTO 10006KT 10SM SCT026 OVC033 12/10 A3024 RMK AO2 TSNO $
KLPC - Lompoc, California, USA
Distance from station: S 70mi, 113km
Updated: 12/18/2014 11:55pm
Mostly cloudy
Mostly cloudy
 Wind from calm
Wind: Calm
Temperature: 52°F , 11°C
Dew Point: 45°F , 7°C
Humidity: 77%
Barometer: 30.24 inHg , 1024 hPa
Clouds: Mostly cloudy
Visibility: 10 miles , 16 km
Cloud details: Mostly cloudy 4000 ft
2014/12/19 07:55 KLPC 190755Z AUTO 00000KT 10SM BKN040 11/07 A3024 RMK AO1
 
KHJO - Hanford, California, USA
Distance from station: NE 72mi, 116km
Updated: 12/18/2014 11:53pm
Clear
Clear
 Wind from E
Wind: E 3 mph , 6 km/h
Temperature: 46°F , 8°C
Dew Point: 43°F , 6°C
Humidity: 87%
Barometer: 30.23 inHg , 1023.7 hPa
Clouds: Clear
Visibility: 7 miles , 11 km
2014/12/19 07:53 KHJO 190753Z AUTO 10003KT 7SM CLR 08/06 A3023 RMK AO2 SLP238 T00780061 401670061